createdAt,value
2018-04-23T00:00:34.632Z,6.10
2018-04-23T00:03:02.139Z,6.80
2018-04-23T00:05:29.662Z,6.00
2018-04-23T00:07:57.169Z,5.60
2018-04-23T00:10:24.697Z,6.00
2018-04-23T00:12:52.185Z,5.90
2018-04-23T00:15:19.653Z,6.13
2018-04-23T00:17:47.134Z,5.77
2018-04-23T00:20:14.628Z,6.00
2018-04-23T00:22:42.115Z,6.27
2018-04-23T00:25:09.667Z,6.93
2018-04-23T00:27:37.154Z,5.63
2018-04-23T00:30:04.651Z,6.27
2018-04-23T00:32:32.143Z,6.53
2018-04-23T00:34:59.634Z,6.27
2018-04-23T00:37:27.132Z,7.47
2018-04-23T00:39:54.616Z,6.53
2018-04-23T00:42:22.118Z,6.80
2018-04-23T00:44:49.630Z,6.50
2018-04-23T00:47:17.118Z,7.03
2018-04-23T00:49:44.676Z,6.13
2018-04-23T00:52:12.167Z,7.10
2018-04-23T00:54:39.658Z,6.77
2018-04-23T00:57:07.167Z,6.90
2018-04-23T00:59:34.661Z,7.10
2018-04-23T01:02:02.148Z,7.00
2018-04-23T01:04:29.622Z,6.10
2018-04-23T01:06:57.110Z,6.27
2018-04-23T01:09:24.608Z,6.10
2018-04-23T01:11:52.100Z,7.13
2018-04-23T01:14:19.598Z,6.27
2018-04-23T01:16:47.078Z,7.00
2018-04-23T01:19:14.586Z,7.30
2018-04-23T01:21:42.102Z,6.10
2018-04-23T01:24:09.610Z,5.90
2018-04-23T01:26:37.139Z,6.50
2018-04-23T01:29:04.636Z,7.90
2018-04-23T01:31:32.122Z,7.13
2018-04-23T01:33:59.615Z,7.80
2018-04-23T01:36:27.145Z,8.00
2018-04-23T01:38:54.635Z,7.33
2018-04-23T01:41:22.114Z,6.63
2018-04-23T01:43:49.580Z,6.30
2018-04-23T01:46:17.062Z,6.47
2018-04-23T01:48:44.530Z,7.53
2018-04-23T01:51:12.007Z,7.40
2018-04-23T01:53:39.470Z,6.60
2018-04-23T01:56:07.018Z,6.93
2018-04-23T01:58:34.510Z,6.77
2018-04-23T02:01:02.009Z,6.83
2018-04-23T02:03:29.526Z,7.17
2018-04-23T02:05:57.076Z,7.00
2018-04-23T02:08:24.584Z,6.50
2018-04-23T02:10:52.092Z,6.53
2018-04-23T02:13:19.562Z,6.30
2018-04-23T02:15:47.059Z,6.37
2018-04-23T02:18:14.551Z,7.20
2018-04-23T02:20:42.081Z,7.63
2018-04-23T02:23:09.561Z,7.13
2018-04-23T02:25:37.046Z,7.57
2018-04-23T02:28:04.535Z,6.87
2018-04-23T02:30:32.021Z,7.13
2018-04-23T02:32:59.513Z,7.23
2018-04-23T02:35:26.994Z,6.37
2018-04-23T02:37:54.494Z,6.20
2018-04-23T02:40:22.004Z,5.67
2018-04-23T02:42:49.483Z,6.20
2018-04-23T02:45:16.964Z,6.63
2018-04-23T02:47:44.601Z,6.43
2018-04-23T02:50:12.086Z,5.10
2018-04-23T02:52:39.575Z,5.87
2018-04-23T02:55:07.039Z,5.50
2018-04-23T02:57:34.540Z,6.60
2018-04-23T03:00:02.048Z,6.00
2018-04-23T03:02:29.535Z,5.90
2018-04-23T03:04:57.043Z,5.97
2018-04-23T03:07:24.540Z,6.13
2018-04-23T03:09:52.092Z,5.57
2018-04-23T03:12:19.574Z,6.10
2018-04-23T03:14:47.069Z,6.77
2018-04-23T03:17:14.602Z,5.77
2018-04-23T03:19:42.095Z,6.23
2018-04-23T03:22:09.596Z,6.83
2018-04-23T03:24:37.134Z,6.47
2018-04-23T03:27:04.612Z,6.30
2018-04-23T03:29:32.104Z,6.53
2018-04-23T03:31:59.589Z,6.50
2018-04-23T03:34:27.062Z,6.53
2018-04-23T03:36:54.671Z,6.40
2018-04-23T03:39:22.132Z,6.33
2018-04-23T03:41:49.622Z,6.23
2018-04-23T03:44:17.112Z,6.07
2018-04-23T03:46:44.611Z,6.40
2018-04-23T03:49:12.106Z,6.13
2018-04-23T03:51:39.599Z,6.50
2018-04-23T03:54:07.076Z,6.37
2018-04-23T03:56:34.561Z,6.20
2018-04-23T03:59:02.060Z,6.60
2018-04-23T04:01:29.572Z,6.20
2018-04-23T04:03:57.065Z,6.57
2018-04-23T04:06:24.532Z,7.57
2018-04-23T04:08:52.019Z,6.70
2018-04-23T04:11:19.496Z,6.33
2018-04-23T04:13:58.802Z,7.40
2018-04-23T04:19:32.921Z,6.13
2018-04-23T04:22:00.401Z,6.40
2018-04-23T04:24:27.933Z,6.70
2018-04-23T04:26:55.422Z,7.43
2018-04-23T04:29:22.918Z,8.10
2018-04-23T04:31:50.410Z,9.17
2018-04-23T04:34:17.881Z,8.60
2018-04-23T04:36:45.390Z,8.13
2018-04-23T04:39:12.911Z,7.50
2018-04-23T04:41:40.405Z,7.67
2018-04-23T04:44:07.897Z,8.03
2018-04-23T04:46:35.384Z,8.47
2018-04-23T04:49:02.938Z,8.03
2018-04-23T04:51:30.665Z,9.40
2018-04-23T04:53:58.160Z,9.00
2018-04-23T04:56:25.712Z,9.37
2018-04-23T04:58:53.208Z,9.20
2018-04-23T05:01:20.703Z,8.80
2018-04-23T05:03:48.226Z,8.70
2018-04-23T05:06:15.832Z,7.57
2018-04-23T05:08:43.735Z,7.80
2018-04-23T05:11:11.220Z,8.30
2018-04-23T05:13:39.768Z,8.40
2018-04-23T05:16:07.264Z,8.13
2018-04-23T05:18:48.642Z,8.13
2018-04-23T05:21:16.195Z,7.97
2018-04-23T05:23:43.746Z,9.30
2018-04-23T05:26:11.223Z,8.17
2018-04-23T05:28:38.735Z,11.47
2018-04-23T05:31:06.235Z,7.20
2018-04-23T05:33:33.760Z,7.63
2018-04-23T05:36:01.247Z,7.10
2018-04-23T05:38:28.734Z,7.30
2018-04-23T05:40:56.363Z,7.10
2018-04-23T05:43:23.854Z,8.27
2018-04-23T05:45:51.346Z,7.20
2018-04-23T05:48:18.862Z,6.90
2018-04-23T05:50:46.353Z,6.80
2018-04-23T05:53:13.833Z,6.57
2018-04-23T05:55:41.329Z,7.20
2018-04-23T05:58:08.823Z,6.60
2018-04-23T06:00:36.317Z,6.07
2018-04-23T06:03:03.822Z,7.43
2018-04-23T06:05:31.336Z,6.50
2018-04-23T06:07:58.792Z,6.50
2018-04-23T06:10:26.327Z,6.70
2018-04-23T06:12:53.823Z,7.43
2018-04-23T06:15:21.307Z,6.40
2018-04-23T06:17:48.813Z,6.40
2018-04-23T06:20:16.309Z,6.07
2018-04-23T06:22:43.823Z,6.43
2018-04-23T06:25:11.320Z,7.00
2018-04-23T06:27:38.827Z,6.90
2018-04-23T06:30:06.300Z,5.87
2018-04-23T06:32:33.865Z,5.90
2018-04-23T06:35:01.333Z,6.20
2018-04-23T06:37:28.938Z,6.37
2018-04-23T06:39:56.477Z,5.83
2018-04-23T06:42:23.971Z,5.60
2018-04-23T06:44:51.464Z,6.17
2018-04-23T06:47:18.932Z,6.40
2018-04-23T06:49:46.423Z,6.30
2018-04-23T06:52:13.949Z,6.30
2018-04-23T06:54:41.435Z,6.33
2018-04-23T06:57:08.915Z,6.13
2018-04-23T06:59:36.415Z,6.60
2018-04-23T07:02:03.899Z,5.70
2018-04-23T07:04:31.378Z,5.23
2018-04-23T07:06:58.889Z,5.93
2018-04-23T07:09:26.491Z,6.90
2018-04-23T07:11:54.031Z,7.20
2018-04-23T07:14:21.519Z,5.90
2018-04-23T07:16:49.064Z,8.60
2018-04-23T07:19:16.609Z,8.50
2018-04-23T07:21:44.088Z,6.60
2018-04-23T07:24:11.589Z,7.20
2018-04-23T07:26:39.088Z,6.00
2018-04-23T07:29:06.571Z,5.93
2018-04-23T07:31:34.091Z,6.63
2018-04-23T07:34:01.580Z,6.67
2018-04-23T07:36:29.045Z,5.73
2018-04-23T07:38:56.545Z,6.60
2018-04-23T07:41:24.028Z,6.43
2018-04-23T07:43:51.524Z,7.90
2018-04-23T07:46:19.031Z,6.13
2018-04-23T07:48:46.524Z,7.20
2018-04-23T07:51:14.012Z,5.93
2018-04-23T07:53:41.526Z,6.10
2018-04-23T07:56:09.040Z,7.40
2018-04-23T07:58:36.616Z,6.80
2018-04-23T08:01:04.189Z,6.87
2018-04-23T08:03:31.730Z,8.43
2018-04-23T08:05:59.232Z,7.50
2018-04-23T08:08:26.749Z,6.43
2018-04-23T08:10:54.232Z,6.47
2018-04-23T08:13:21.715Z,7.67
2018-04-23T08:15:49.209Z,7.23
2018-04-23T08:18:16.681Z,7.97
2018-04-23T08:20:44.170Z,7.73
2018-04-23T08:23:11.767Z,7.83
2018-04-23T08:25:39.259Z,8.10
2018-04-23T08:28:06.743Z,7.13
2018-04-23T08:30:34.234Z,7.30
2018-04-23T08:33:01.714Z,6.47
2018-04-23T08:35:29.380Z,5.93
2018-04-23T08:37:56.899Z,5.37
2018-04-23T08:40:24.400Z,5.20
2018-04-23T08:42:51.929Z,4.80
2018-04-23T08:45:19.413Z,5.27
2018-04-23T08:47:46.941Z,5.30
2018-04-23T08:50:14.466Z,4.87
2018-04-23T08:52:42.048Z,5.23
2018-04-23T08:55:09.543Z,5.80
2018-04-23T08:57:37.044Z,5.17
2018-04-23T09:00:04.621Z,5.60
2018-04-23T09:02:32.114Z,5.70
2018-04-23T09:04:59.612Z,5.50
2018-04-23T09:07:27.186Z,5.67
2018-04-23T09:09:54.674Z,5.80
2018-04-23T09:12:22.161Z,4.60
2018-04-23T09:14:49.711Z,4.73
2018-04-23T09:17:17.232Z,4.73
2018-04-23T09:19:44.711Z,4.50
2018-04-23T09:22:12.234Z,5.40
2018-04-23T09:24:39.732Z,5.33
2018-04-23T09:27:07.225Z,5.20
2018-04-23T09:29:34.750Z,5.03
2018-04-23T09:32:02.246Z,4.60
2018-04-23T09:34:29.739Z,5.10
2018-04-23T09:36:57.343Z,4.30
2018-04-23T09:39:24.967Z,5.00
2018-04-23T09:41:52.466Z,4.40
2018-04-23T09:44:19.973Z,4.63
2018-04-23T09:46:47.438Z,4.27
2018-04-23T09:49:14.947Z,4.80
2018-04-23T09:51:42.526Z,4.17
2018-04-23T09:54:10.010Z,4.30
2018-04-23T09:56:37.514Z,4.27
2018-04-23T09:59:05.029Z,4.20
2018-04-23T10:01:32.745Z,3.57
2018-04-23T10:04:06.071Z,3.70
2018-04-23T10:09:07.330Z,4.27
2018-04-23T10:11:34.844Z,3.50
2018-04-23T10:14:02.331Z,3.63
2018-04-23T10:16:29.872Z,3.30
2018-04-23T10:18:57.366Z,3.43
2018-04-23T10:21:24.864Z,3.47
2018-04-23T10:23:52.358Z,3.80
2018-04-23T10:26:19.834Z,3.57
2018-04-23T10:28:47.344Z,3.47
2018-04-23T10:31:14.839Z,3.80
2018-04-23T10:33:42.320Z,3.03
2018-04-23T10:36:09.803Z,4.17
2018-04-23T10:38:39.372Z,3.83
2018-04-23T10:41:06.874Z,4.53
2018-04-23T10:43:35.290Z,4.10
2018-04-23T10:46:02.753Z,4.13
2018-04-23T10:48:30.292Z,3.30
2018-04-23T10:50:58.114Z,3.80
2018-04-23T10:53:25.674Z,4.30
2018-04-23T10:55:53.145Z,3.87
2018-04-23T10:58:20.634Z,3.87
2018-04-23T11:00:48.127Z,3.50
2018-04-23T11:03:15.661Z,4.20
2018-04-23T11:05:43.181Z,2.93
2018-04-23T11:08:10.679Z,3.53
2018-04-23T11:10:38.185Z,3.77
2018-04-23T11:13:05.772Z,3.60
2018-04-23T11:15:33.236Z,3.63
2018-04-23T11:18:00.723Z,2.67
2018-04-23T11:20:28.203Z,3.93
2018-04-23T11:22:55.683Z,3.93
2018-04-23T11:25:23.157Z,4.23
2018-04-23T11:27:50.645Z,5.13
2018-04-23T11:30:18.159Z,4.87
2018-04-23T11:32:45.632Z,4.07
2018-04-23T11:35:13.119Z,4.10
2018-04-23T11:37:40.619Z,3.83
2018-04-23T11:40:08.452Z,5.63
2018-04-23T11:42:35.949Z,5.43
2018-04-23T11:45:03.486Z,4.50
2018-04-23T11:47:30.931Z,3.93
2018-04-23T11:49:58.407Z,3.30
2018-04-23T11:52:25.895Z,3.17
2018-04-23T11:54:53.384Z,4.97
2018-04-23T11:57:20.870Z,3.50
2018-04-23T11:59:48.368Z,3.23
2018-04-23T12:02:15.877Z,4.90
2018-04-23T12:04:43.364Z,3.40
2018-04-23T12:07:10.884Z,4.43
2018-04-23T12:09:38.386Z,4.60
2018-04-23T12:12:05.867Z,4.90
2018-04-23T12:14:33.428Z,5.10
2018-04-23T12:17:00.918Z,4.53
2018-04-23T12:19:28.399Z,3.53
2018-04-23T12:21:55.900Z,4.57
2018-04-23T12:24:23.486Z,5.23
2018-04-23T12:26:51.146Z,5.67
2018-04-23T12:29:18.618Z,6.57
2018-04-23T12:31:46.110Z,5.33
2018-04-23T12:34:13.586Z,6.17
2018-04-23T12:36:41.124Z,6.00
2018-04-23T12:39:08.612Z,4.83
2018-04-23T12:41:36.111Z,6.27
2018-04-23T12:44:03.600Z,5.50
2018-04-23T12:46:31.101Z,5.23
2018-04-23T12:48:58.609Z,5.63
2018-04-23T12:51:26.089Z,5.47
2018-04-23T12:53:53.681Z,5.70
2018-04-23T12:56:21.232Z,5.30
2018-04-23T12:58:48.728Z,6.03
2018-04-23T13:01:16.305Z,3.93
2018-04-23T13:03:43.864Z,4.30
2018-04-23T13:06:11.442Z,5.20
2018-04-23T13:08:38.937Z,6.53
2018-04-23T13:11:06.523Z,4.37
2018-04-23T13:13:34.007Z,6.10
2018-04-23T13:16:01.508Z,5.80
2018-04-23T13:18:29.076Z,5.83
2018-04-23T13:20:56.535Z,5.47
2018-04-23T13:23:24.047Z,5.67
2018-04-23T13:25:51.626Z,5.17
2018-04-23T13:28:19.189Z,5.33
2018-04-23T13:30:46.699Z,5.40
2018-04-23T13:33:14.215Z,5.00
2018-04-23T13:35:41.672Z,5.70
2018-04-23T13:38:13.907Z,6.50
2018-04-23T13:40:41.412Z,6.10
2018-04-23T13:43:08.942Z,7.17
2018-04-23T13:45:36.566Z,7.17
2018-04-23T13:48:04.080Z,6.40
2018-04-23T13:50:31.570Z,6.60
2018-04-23T13:52:59.122Z,5.40
2018-04-23T13:55:26.637Z,5.37
2018-04-23T13:57:54.145Z,7.07
2018-04-23T14:00:21.686Z,5.93
2018-04-23T14:02:49.224Z,5.20
2018-04-23T14:05:16.741Z,5.80
2018-04-23T14:07:52.669Z,5.00
2018-04-23T14:10:20.191Z,4.83
2018-04-23T14:12:48.857Z,5.20
2018-04-23T14:15:21.065Z,6.13
2018-04-23T14:18:18.148Z,5.37
2018-04-23T14:20:54.729Z,5.77
2018-04-23T14:23:23.229Z,5.80
2018-04-23T14:25:50.726Z,5.67
2018-04-23T14:28:18.257Z,5.80
2018-04-23T14:30:45.760Z,5.30
2018-04-23T14:33:13.326Z,5.93
2018-04-23T14:35:40.869Z,5.20
2018-04-23T14:38:08.385Z,6.00
2018-04-23T14:40:35.865Z,5.70
2018-04-23T14:43:03.409Z,4.40
2018-04-23T14:45:30.972Z,4.73
2018-04-23T14:47:58.445Z,4.93
2018-04-23T14:50:25.945Z,5.60
2018-04-23T14:52:53.435Z,7.03
2018-04-23T14:55:20.928Z,5.97
2018-04-23T14:57:48.435Z,6.70
2018-04-23T15:00:16.060Z,5.70
2018-04-23T15:02:43.743Z,9.90
2018-04-23T15:05:11.238Z,7.27
2018-04-23T15:07:38.735Z,9.40
2018-04-23T15:10:06.307Z,7.77
2018-04-23T15:21:12.354Z,6.10
2018-04-23T15:23:39.923Z,5.40
2018-04-23T15:26:07.423Z,5.40
2018-04-23T15:28:34.975Z,6.30
2018-04-23T15:31:02.537Z,4.90
2018-04-23T15:33:30.042Z,7.57
2018-04-23T15:35:57.634Z,6.50
2018-04-23T15:38:25.160Z,5.90
2018-04-23T15:40:52.691Z,5.57
2018-04-23T15:43:20.169Z,5.47
2018-04-23T15:45:47.653Z,6.37
2018-04-23T15:48:15.200Z,6.23
2018-04-23T15:50:42.727Z,5.97
2018-04-23T15:53:10.224Z,6.23
2018-04-23T15:55:37.878Z,6.10
2018-04-23T15:58:05.346Z,6.33
2018-04-23T16:00:32.835Z,7.07
2018-04-23T16:03:00.407Z,5.40
2018-04-23T16:05:27.913Z,6.80
2018-04-23T16:07:55.426Z,5.97
2018-04-23T16:10:22.934Z,6.30
2018-04-23T16:12:50.429Z,6.60
2018-04-23T16:15:17.919Z,6.53
2018-04-23T16:17:45.401Z,6.40
2018-04-23T16:20:12.915Z,6.10
2018-04-23T16:22:40.414Z,5.47
2018-04-23T16:25:07.943Z,6.10
2018-04-23T16:27:35.436Z,6.43
2018-04-23T16:30:02.950Z,5.87
2018-04-23T16:32:31.543Z,4.57
2018-04-23T16:34:59.111Z,4.53
2018-04-23T16:37:27.598Z,5.10
2018-04-23T16:39:55.093Z,5.30
2018-04-23T16:42:22.590Z,5.60
2018-04-23T16:44:50.545Z,5.37
2018-04-23T16:47:17.577Z,5.23
2018-04-23T16:49:45.162Z,5.50
2018-04-23T16:52:12.709Z,5.03
2018-04-23T16:54:40.286Z,4.77
2018-04-23T16:57:14.038Z,5.50
2018-04-23T16:59:44.226Z,4.90
2018-04-23T17:02:11.796Z,4.87
2018-04-23T17:04:39.283Z,5.23
2018-04-23T17:07:06.749Z,5.47
2018-04-23T17:09:34.246Z,4.97
2018-04-23T17:12:04.801Z,4.77
2018-04-23T17:14:36.059Z,5.87
2018-04-23T17:17:08.453Z,4.90
2018-04-23T17:19:36.051Z,5.23
2018-04-23T17:22:13.353Z,7.67
2018-04-23T17:24:55.543Z,5.63
2018-04-23T17:27:33.277Z,5.33
2018-04-23T17:30:10.145Z,5.87
2018-04-23T17:32:51.862Z,5.90
2018-04-23T17:38:16.542Z,5.07
2018-04-23T17:40:47.889Z,5.40
2018-04-23T17:43:18.819Z,4.77
2018-04-23T17:45:59.631Z,5.63
2018-04-23T17:48:30.270Z,5.97
2018-04-23T17:50:59.730Z,4.63
2018-04-23T17:53:27.411Z,4.00
2018-04-23T17:55:55.231Z,4.70
2018-04-23T17:58:24.063Z,5.80
2018-04-23T18:00:51.586Z,4.53
2018-04-23T18:03:19.090Z,5.00
2018-04-23T18:05:46.684Z,5.40
2018-04-23T18:08:14.502Z,5.93
2018-04-23T18:10:42.014Z,5.60
2018-04-23T18:13:09.568Z,6.20
2018-04-23T18:15:37.122Z,5.63
2018-04-23T18:18:04.746Z,4.63
2018-04-23T18:20:32.476Z,5.40
2018-04-23T18:22:59.962Z,5.40
2018-04-23T18:25:27.486Z,5.50
2018-04-23T18:27:55.010Z,6.10
2018-04-23T18:30:22.522Z,5.20
2018-04-23T18:32:50.059Z,5.27
2018-04-23T18:35:17.716Z,6.03
2018-04-23T18:37:45.277Z,6.73
2018-04-23T18:40:13.014Z,7.00
2018-04-23T18:42:40.511Z,5.83
2018-04-23T18:45:08.059Z,6.30
2018-04-23T18:47:36.499Z,6.80
2018-04-23T18:50:04.464Z,5.73
2018-04-23T18:52:32.166Z,5.33
2018-04-23T18:54:59.699Z,5.57
2018-04-23T18:57:27.181Z,5.70
2018-04-23T18:59:54.775Z,5.87
2018-04-23T19:02:22.274Z,5.17
2018-04-23T19:04:49.774Z,5.93
2018-04-23T19:07:17.313Z,5.43
2018-04-23T19:09:45.485Z,5.57
2018-04-23T19:12:13.161Z,5.50
2018-04-23T19:14:40.760Z,5.23
2018-04-23T19:17:08.437Z,5.43
2018-04-23T19:19:35.940Z,5.53
2018-04-23T19:22:03.491Z,5.37
2018-04-23T19:24:31.114Z,6.67
2018-04-23T19:26:58.779Z,4.67
2018-04-23T19:29:26.388Z,5.00
2018-04-23T19:31:53.928Z,4.67
2018-04-23T19:34:21.423Z,5.40
2018-04-23T19:36:49.116Z,4.60
2018-04-23T19:39:16.611Z,5.43
2018-04-23T19:41:44.196Z,5.20
2018-04-23T19:44:11.793Z,5.00
2018-04-23T19:46:39.310Z,4.53
2018-04-23T19:49:07.094Z,4.50
2018-04-23T19:51:34.628Z,5.00
2018-04-23T19:54:02.112Z,5.00
2018-04-23T19:56:29.657Z,5.60
2018-04-23T19:58:57.157Z,5.47
2018-04-23T20:01:24.786Z,5.27
2018-04-23T20:03:52.441Z,5.37
2018-04-23T20:06:20.024Z,5.40
2018-04-23T20:08:47.648Z,4.87
2018-04-23T20:11:15.164Z,4.53
2018-04-23T20:13:42.808Z,5.10
2018-04-23T20:16:10.849Z,5.67
2018-04-23T20:18:38.323Z,6.20
2018-04-23T20:21:05.866Z,5.20
2018-04-23T20:23:33.415Z,5.40
2018-04-23T20:26:00.907Z,5.43
2018-04-23T20:28:28.499Z,5.40
2018-04-23T20:30:56.013Z,5.47
2018-04-23T20:33:23.550Z,6.47
2018-04-23T20:35:51.060Z,5.10
2018-04-23T20:38:18.565Z,4.90
2018-04-23T20:40:46.186Z,5.53
2018-04-23T20:43:13.697Z,5.50
2018-04-23T20:45:41.226Z,6.20
2018-04-23T20:48:08.965Z,4.93
2018-04-23T20:50:36.482Z,5.93
2018-04-23T20:53:03.966Z,5.60
2018-04-23T20:55:31.577Z,5.63
2018-04-23T20:57:59.290Z,5.43
2018-04-23T21:00:26.832Z,6.50
2018-04-23T21:02:54.356Z,5.30
2018-04-23T21:05:21.874Z,6.10
2018-04-23T21:07:49.460Z,6.60
2018-04-23T21:10:17.017Z,5.83
2018-04-23T21:12:44.619Z,6.63
2018-04-23T21:15:12.173Z,5.50
2018-04-23T21:17:39.690Z,5.67
2018-04-23T21:20:07.196Z,5.57
2018-04-23T21:22:34.694Z,5.73
2018-04-23T21:25:02.209Z,5.50
2018-04-23T21:27:29.741Z,6.40
2018-04-23T21:29:57.229Z,6.93
2018-04-23T21:32:24.724Z,5.93
2018-04-23T21:34:52.206Z,5.97
2018-04-23T21:37:19.712Z,5.60
2018-04-23T21:39:47.219Z,5.00
2018-04-23T21:42:14.804Z,5.90
2018-04-23T21:44:42.292Z,5.60
2018-04-23T21:47:09.837Z,5.07
2018-04-23T21:49:37.320Z,5.10
2018-04-23T21:52:04.811Z,6.73
2018-04-23T21:54:32.298Z,5.20
2018-04-23T21:56:59.869Z,5.67
2018-04-23T21:59:27.380Z,5.90
2018-04-23T22:01:54.947Z,6.00
2018-04-23T22:04:22.538Z,5.60
2018-04-23T22:06:50.153Z,5.33
2018-04-23T22:09:18.333Z,5.80
2018-04-23T22:11:45.886Z,5.47
2018-04-23T22:14:13.477Z,5.63
2018-04-23T22:16:41.059Z,6.67
2018-04-23T22:19:08.610Z,5.93
2018-04-23T22:21:36.259Z,6.50
2018-04-23T22:24:03.778Z,5.50
2018-04-23T22:26:31.433Z,6.40
2018-04-23T22:28:58.973Z,6.77
2018-04-23T22:31:26.626Z,6.20
2018-04-23T22:33:54.182Z,5.70
2018-04-23T22:36:21.767Z,5.97
2018-04-23T22:38:49.318Z,6.27
2018-04-23T22:41:16.852Z,6.50
2018-04-23T22:43:44.397Z,5.50
2018-04-23T22:46:12.020Z,5.73
2018-04-23T22:48:39.568Z,4.77
2018-04-23T22:51:07.111Z,5.17
2018-04-23T22:53:34.684Z,4.90
2018-04-23T22:56:02.248Z,5.37
2018-04-23T22:58:29.816Z,6.50
2018-04-23T23:00:57.393Z,5.40
2018-04-23T23:03:25.025Z,5.97
2018-04-23T23:05:52.656Z,6.40
2018-04-23T23:08:20.195Z,5.07
2018-04-23T23:10:47.793Z,5.40
2018-04-23T23:13:15.467Z,5.20
2018-04-23T23:15:43.138Z,5.00
2018-04-23T23:18:10.688Z,5.33
2018-04-23T23:20:38.307Z,5.00
2018-04-23T23:23:05.922Z,4.93
2018-04-23T23:25:33.496Z,5.10
2018-04-23T23:28:01.235Z,4.90
2018-04-23T23:30:28.770Z,4.83
2018-04-23T23:32:56.331Z,6.03
2018-04-23T23:35:24.074Z,5.20
2018-04-23T23:37:51.717Z,5.13
2018-04-23T23:40:19.284Z,4.90
2018-04-23T23:42:46.820Z,5.17
2018-04-23T23:45:14.489Z,4.70
2018-04-23T23:47:42.130Z,5.80
2018-04-23T23:50:09.630Z,5.20
2018-04-23T23:52:37.122Z,5.30
2018-04-23T23:55:04.614Z,7.03
2018-04-23T23:57:32.216Z,6.07
2018-04-23T23:59:59.706Z,4.80
